Terminal Aerodrome Forecast
Issued by NWS Austin/San Antonio, TX

Home | Current Version | Previous Version | Text Only | Print | Product List | Glossary On
Versions: 1 2 3 4 5 6 7 8 9 10 11 12 13 14 15 16 17 18 19 20 21 22 23 24
000
FTUS44 KEWX 231700
TAFSAT
TAF
KSAT 231729Z 2318/2424 14013KT P6SM SCT040 SCT250
     FM240600 17009KT P6SM BKN010
     FM241000 17008KT P6SM OVC007
     FM241400 19008KT P6SM BKN015
     FM241600 20009KT P6SM BKN025
     FM241900 14007KT P6SM SCT040=

USA.gov is the U.S. government's official web portal to all federal, state and local government web resources and services.